Jacksonville, FL (32217)

7:02 PM EST on December 20, 2014 (GMT -0500)
Brierwood/Mandarin | Change Station
CLOSE
Current Station
Personal Weather Station
Location: Jacksonville, FL
Elevation: 30 ft
Nearby Weather Stations

Elev 30 ft 30.21 °N, 81.60 °W | Updated 1 minute ago

Overcast
Overcast
59.2 °F
Feels Like 59.2 °F
N
0.0
Wind Variable Wind from ENE
Gusts 0.0 mph

Today
High -- | Low -- °F
--% Chance of Precip.
Yesterday
High -- | Low -- °F
Precip. -- in
7:18 AM 5:30 PM
Waning Crescent, 1% visible
Pressure 30.12 in
Visibility 10.0 miles
Clouds Mostly Cloudy 900 ft
Mostly Cloudy 3600 ft
Dew Point 55 °F
Humidity 87%
Rainfall 0.00 in
Snow Depth Not available.
UV 0.0 out of 12
Pollen 2.50 out of 12
Air Quality Not available.
Flu Activity Not available.
METAR KNIP 202353Z 02007KT 10SM BKN009 BKN036 16/13 A3014 RMK AO2 SLP200 T01610128 10217 20161 53016

More Conditions Fewer Conditions

Pressure 30.12 in
Visibility 10.0 miles
Clouds Mostly Cloudy 900 ft
Mostly Cloudy 3600 ft
Dew Point 55 °F
Humidity 87%
Rainfall 0.00 in
Snow Depth Not available.
UV 0.0 out of 12
Pollen 2.50 out of 12
Air Quality Not available.
Flu Activity Not available.
METAR KNIP 202353Z 02007KT 10SM BKN009 BKN036 16/13 A3014 RMK AO2 SLP200 T01610128 10217 20161 53016

More Conditions Fewer Conditions

10-Day Weather Forecast

Almanac

Astronomy

Dec. 20, 2014 Rise Set
Actual Time
Civil Twilight
Nautical Twilight
Astronomical Twilight
Moon
Length of Visible Light
Length of Day
Tomorrow will be .
, % of the Moon is Illuminated

Today's Extremes

State Highs State Lows

Community

WunderPhotos

Upload Photos

1,779,320 photos uploaded!

WunderBlogs® & News

Nearby

Air Quality

  Air Quality AQ Index Pollutant
Not available.

Snow Depth

Station Depth Elevation

Earthquake Activity

City Distance Mag. Time & Date
Minimum magnitude displayed is 2.5.

Coastal Water Temperatures

Place Temperature

Nearby Weather Stations